sensor_id;sensor_type;location;lat;lon;timestamp;temperature;humidity
22383;DHT22;11359;45.802;13.530;2022-09-13T00:00:33;22.60;52.20
22383;DHT22;11359;45.802;13.530;2022-09-13T00:02:59;22.60;52.20
22383;DHT22;11359;45.802;13.530;2022-09-13T00:05:25;22.60;52.30
22383;DHT22;11359;45.802;13.530;2022-09-13T00:07:51;22.60;52.40
22383;DHT22;11359;45.802;13.530;2022-09-13T00:10:17;22.50;52.40
22383;DHT22;11359;45.802;13.530;2022-09-13T00:12:42;22.50;52.50
22383;DHT22;11359;45.802;13.530;2022-09-13T00:15:09;22.50;52.50
22383;DHT22;11359;45.802;13.530;2022-09-13T00:17:34;22.50;52.60
22383;DHT22;11359;45.802;13.530;2022-09-13T00:20:00;22.50;52.60
22383;DHT22;11359;45.802;13.530;2022-09-13T00:22:26;22.50;52.60
22383;DHT22;11359;45.802;13.530;2022-09-13T00:24:52;22.40;52.60
22383;DHT22;11359;45.802;13.530;2022-09-13T00:27:18;22.40;52.60
22383;DHT22;11359;45.802;13.530;2022-09-13T00:29:44;22.40;52.70
22383;DHT22;11359;45.802;13.530;2022-09-13T00:32:10;22.40;52.70
22383;DHT22;11359;45.802;13.530;2022-09-13T00:34:36;22.40;52.70
22383;DHT22;11359;45.802;13.530;2022-09-13T00:37:02;22.40;52.80
22383;DHT22;11359;45.802;13.530;2022-09-13T00:39:28;22.40;52.80
22383;DHT22;11359;45.802;13.530;2022-09-13T00:41:54;22.40;52.70
22383;DHT22;11359;45.802;13.530;2022-09-13T00:47:15;22.30;52.70
22383;DHT22;11359;45.802;13.530;2022-09-13T00:49:45;22.30;52.80
22383;DHT22;11359;45.802;13.530;2022-09-13T00:52:15;22.30;52.80
22383;DHT22;11359;45.802;13.530;2022-09-13T00:54:46;22.30;52.80
22383;DHT22;11359;45.802;13.530;2022-09-13T00:57:14;22.30;52.80
22383;DHT22;11359;45.802;13.530;2022-09-13T01:00:13;22.20;52.80
22383;DHT22;11359;45.802;13.530;2022-09-13T01:02:56;22.20;52.80
22383;DHT22;11359;45.802;13.530;2022-09-13T01:05:28;22.20;52.90
22383;DHT22;11359;45.802;13.530;2022-09-13T01:07:55;22.20;52.90
22383;DHT22;11359;45.802;13.530;2022-09-13T01:10:21;22.20;53.00
22383;DHT22;11359;45.802;13.530;2022-09-13T01:12:59;22.10;52.90
22383;DHT22;11359;45.802;13.530;2022-09-13T01:15:26;22.10;53.00
22383;DHT22;11359;45.802;13.530;2022-09-13T01:17:53;22.10;53.00
22383;DHT22;11359;45.802;13.530;2022-09-13T01:20:24;22.10;53.00
22383;DHT22;11359;45.802;13.530;2022-09-13T01:23:23;22.00;53.00
22383;DHT22;11359;45.802;13.530;2022-09-13T01:33:55;22.00;53.10
22383;DHT22;11359;45.802;13.530;2022-09-13T01:42:40;22.00;53.20
22383;DHT22;11359;45.802;13.530;2022-09-13T01:48:00;21.90;53.10
22383;DHT22;11359;45.802;13.530;2022-09-13T01:53:24;21.90;53.10
22383;DHT22;11359;45.802;13.530;2022-09-13T01:56:13;21.90;53.10
22383;DHT22;11359;45.802;13.530;2022-09-13T02:01:45;21.90;53.00
22383;DHT22;11359;45.802;13.530;2022-09-13T02:04:24;21.80;53.00
22383;DHT22;11359;45.802;13.530;2022-09-13T02:07:03;21.90;53.00
22383;DHT22;11359;45.802;13.530;2022-09-13T02:09:34;21.80;53.00
22383;DHT22;11359;45.802;13.530;2022-09-13T02:12:14;21.80;53.10
22383;DHT22;11359;45.802;13.530;2022-09-13T02:14:43;21.80;53.10
22383;DHT22;11359;45.802;13.530;2022-09-13T02:17:17;21.80;53.20
22383;DHT22;11359;45.802;13.530;2022-09-13T02:19:56;21.80;53.20
22383;DHT22;11359;45.802;13.530;2022-09-13T02:22:28;21.80;53.20
22383;DHT22;11359;45.802;13.530;2022-09-13T02:25:09;21.80;53.20
22383;DHT22;11359;45.802;13.530;2022-09-13T02:27:38;21.80;53.20
22383;DHT22;11359;45.802;13.530;2022-09-13T02:30:09;21.80;53.20
22383;DHT22;11359;45.802;13.530;2022-09-13T02:33:38;21.80;53.20
22383;DHT22;11359;45.802;13.530;2022-09-13T02:35:50;21.80;53.20
22383;DHT22;11359;45.802;13.530;2022-09-13T02:38:30;21.80;53.20
22383;DHT22;11359;45.802;13.530;2022-09-13T02:41:04;21.70;53.20
22383;DHT22;11359;45.802;13.530;2022-09-13T02:43:34;21.70;53.20
22383;DHT22;11359;45.802;13.530;2022-09-13T02:46:11;21.70;53.20
22383;DHT22;11359;45.802;13.530;2022-09-13T02:57:05;21.70;53.40
22383;DHT22;11359;45.802;13.530;2022-09-13T02:59:34;21.70;53.40
22383;DHT22;11359;45.802;13.530;2022-09-13T03:02:10;21.60;53.40
22383;DHT22;11359;45.802;13.530;2022-09-13T03:04:37;21.60;53.40
22383;DHT22;11359;45.802;13.530;2022-09-13T03:07:05;21.60;53.50
22383;DHT22;11359;45.802;13.530;2022-09-13T03:09:33;21.60;53.50
22383;DHT22;11359;45.802;13.530;2022-09-13T03:15:00;21.60;53.60
22383;DHT22;11359;45.802;13.530;2022-09-13T03:23:20;21.60;53.70
22383;DHT22;11359;45.802;13.530;2022-09-13T03:26:05;21.50;53.70
22383;DHT22;11359;45.802;13.530;2022-09-13T03:31:26;21.50;53.80
22383;DHT22;11359;45.802;13.530;2022-09-13T03:34:11;21.50;53.80
22383;DHT22;11359;45.802;13.530;2022-09-13T03:42:00;21.50;53.90
22383;DHT22;11359;45.802;13.530;2022-09-13T03:44:28;21.50;53.90
22383;DHT22;11359;45.802;13.530;2022-09-13T03:46:57;21.50;54.00
22383;DHT22;11359;45.802;13.530;2022-09-13T03:49:26;21.50;54.00
22383;DHT22;11359;45.802;13.530;2022-09-13T03:51:52;21.50;54.20
22383;DHT22;11359;45.802;13.530;2022-09-13T03:54:25;21.50;54.20
22383;DHT22;11359;45.802;13.530;2022-09-13T03:57:15;21.50;54.20
22383;DHT22;11359;45.802;13.530;2022-09-13T03:59:53;21.50;54.30
22383;DHT22;11359;45.802;13.530;2022-09-13T04:02:20;21.50;54.30
22383;DHT22;11359;45.802;13.530;2022-09-13T04:04:46;21.50;54.30
22383;DHT22;11359;45.802;13.530;2022-09-13T04:07:15;21.50;54.30
22383;DHT22;11359;45.802;13.530;2022-09-13T04:09:41;21.50;54.90
22383;DHT22;11359;45.802;13.530;2022-09-13T04:12:07;21.50;54.30
22383;DHT22;11359;45.802;13.530;2022-09-13T04:14:36;21.50;54.30
22383;DHT22;11359;45.802;13.530;2022-09-13T04:17:02;21.50;54.40
22383;DHT22;11359;45.802;13.530;2022-09-13T04:19:27;21.50;54.50
22383;DHT22;11359;45.802;13.530;2022-09-13T04:21:54;21.50;54.50
22383;DHT22;11359;45.802;13.530;2022-09-13T04:24:27;21.50;54.60
22383;DHT22;11359;45.802;13.530;2022-09-13T04:26:54;21.50;54.60
22383;DHT22;11359;45.802;13.530;2022-09-13T04:29:21;21.50;54.70
22383;DHT22;11359;45.802;13.530;2022-09-13T04:31:48;21.50;54.70
22383;DHT22;11359;45.802;13.530;2022-09-13T04:34:14;21.50;54.70
22383;DHT22;11359;45.802;13.530;2022-09-13T04:36:40;21.50;54.80
22383;DHT22;11359;45.802;13.530;2022-09-13T04:39:05;21.50;54.80
22383;DHT22;11359;45.802;13.530;2022-09-13T04:41:32;21.50;54.80
22383;DHT22;11359;45.802;13.530;2022-09-13T04:43:59;21.50;54.90
22383;DHT22;11359;45.802;13.530;2022-09-13T04:46:25;21.50;54.90
22383;DHT22;11359;45.802;13.530;2022-09-13T04:48:52;21.50;54.90
22383;DHT22;11359;45.802;13.530;2022-09-13T04:51:18;21.50;54.90
22383;DHT22;11359;45.802;13.530;2022-09-13T04:53:44;21.50;54.90
22383;DHT22;11359;45.802;13.530;2022-09-13T04:56:10;21.50;54.90
22383;DHT22;11359;45.802;13.530;2022-09-13T04:58:38;21.50;55.00
22383;DHT22;11359;45.802;13.530;2022-09-13T05:01:06;21.50;55.00
22383;DHT22;11359;45.802;13.530;2022-09-13T05:03:33;21.60;55.10
22383;DHT22;11359;45.802;13.530;2022-09-13T05:06:08;21.50;55.00
22383;DHT22;11359;45.802;13.530;2022-09-13T05:08:34;21.60;55.00
22383;DHT22;11359;45.802;13.530;2022-09-13T05:11:00;21.60;55.00
22383;DHT22;11359;45.802;13.530;2022-09-13T05:13:27;21.60;55.00
22383;DHT22;11359;45.802;13.530;2022-09-13T05:16:01;21.60;54.90
22383;DHT22;11359;45.802;13.530;2022-09-13T05:18:32;21.60;54.90
22383;DHT22;11359;45.802;13.530;2022-09-13T05:20:59;21.60;55.00
22383;DHT22;11359;45.802;13.530;2022-09-13T05:23:26;21.60;55.00
22383;DHT22;11359;45.802;13.530;2022-09-13T05:25:58;21.60;55.00
22383;DHT22;11359;45.802;13.530;2022-09-13T05:28:26;21.60;55.10
22383;DHT22;11359;45.802;13.530;2022-09-13T05:30:57;21.60;55.10
22383;DHT22;11359;45.802;13.530;2022-09-13T05:33:27;21.60;55.10
22383;DHT22;11359;45.802;13.530;2022-09-13T05:35:53;21.60;55.10
22383;DHT22;11359;45.802;13.530;2022-09-13T05:38:19;21.60;55.20
22383;DHT22;11359;45.802;13.530;2022-09-13T05:40:46;21.60;55.20
22383;DHT22;11359;45.802;13.530;2022-09-13T05:43:12;21.60;55.30
22383;DHT22;11359;45.802;13.530;2022-09-13T05:45:38;21.60;55.30
22383;DHT22;11359;45.802;13.530;2022-09-13T05:48:04;21.70;55.40
22383;DHT22;11359;45.802;13.530;2022-09-13T05:50:30;21.70;55.50
22383;DHT22;11359;45.802;13.530;2022-09-13T05:52:56;21.70;55.50
22383;DHT22;11359;45.802;13.530;2022-09-13T05:55:22;21.70;55.60
22383;DHT22;11359;45.802;13.530;2022-09-13T05:57:49;21.70;55.60
22383;DHT22;11359;45.802;13.530;2022-09-13T06:00:15;21.70;55.70
22383;DHT22;11359;45.802;13.530;2022-09-13T06:02:41;21.80;55.80
22383;DHT22;11359;45.802;13.530;2022-09-13T06:05:08;21.80;55.80
22383;DHT22;11359;45.802;13.530;2022-09-13T06:07:35;21.80;55.80
22383;DHT22;11359;45.802;13.530;2022-09-13T06:10:02;21.80;55.80
22383;DHT22;11359;45.802;13.530;2022-09-13T06:12:29;21.80;55.90
22383;DHT22;11359;45.802;13.530;2022-09-13T06:14:54;21.90;56.00
22383;DHT22;11359;45.802;13.530;2022-09-13T06:17:20;21.90;56.00
22383;DHT22;11359;45.802;13.530;2022-09-13T06:19:46;21.90;56.10
22383;DHT22;11359;45.802;13.530;2022-09-13T06:22:12;21.90;56.20
22383;DHT22;11359;45.802;13.530;2022-09-13T06:24:37;21.90;56.20
22383;DHT22;11359;45.802;13.530;2022-09-13T06:27:03;21.90;56.30
22383;DHT22;11359;45.802;13.530;2022-09-13T06:29:29;21.90;56.30
22383;DHT22;11359;45.802;13.530;2022-09-13T06:31:54;22.00;56.30
22383;DHT22;11359;45.802;13.530;2022-09-13T06:34:20;22.00;56.30
22383;DHT22;11359;45.802;13.530;2022-09-13T06:36:46;22.00;56.40
22383;DHT22;11359;45.802;13.530;2022-09-13T06:39:11;22.00;56.50
22383;DHT22;11359;45.802;13.530;2022-09-13T06:41:37;22.00;56.50
22383;DHT22;11359;45.802;13.530;2022-09-13T06:44:03;22.10;56.60
22383;DHT22;11359;45.802;13.530;2022-09-13T06:46:32;22.10;56.60
22383;DHT22;11359;45.802;13.530;2022-09-13T06:48:59;22.10;56.60
22383;DHT22;11359;45.802;13.530;2022-09-13T06:51:25;22.20;56.80
22383;DHT22;11359;45.802;13.530;2022-09-13T06:53:52;22.20;56.80
22383;DHT22;11359;45.802;13.530;2022-09-13T06:56:26;22.20;56.80
22383;DHT22;11359;45.802;13.530;2022-09-13T06:58:55;22.20;56.90
22383;DHT22;11359;45.802;13.530;2022-09-13T07:01:24;22.30;56.90
22383;DHT22;11359;45.802;13.530;2022-09-13T07:03:57;22.30;57.00
22383;DHT22;11359;45.802;13.530;2022-09-13T07:06:25;22.30;57.70
22383;DHT22;11359;45.802;13.530;2022-09-13T07:08:55;22.40;57.10
22383;DHT22;11359;45.802;13.530;2022-09-13T07:11:24;22.40;57.20
22383;DHT22;11359;45.802;13.530;2022-09-13T07:13:52;22.40;57.20
22383;DHT22;11359;45.802;13.530;2022-09-13T07:16:19;22.40;57.30
22383;DHT22;11359;45.802;13.530;2022-09-13T07:18:54;22.40;57.30
22383;DHT22;11359;45.802;13.530;2022-09-13T07:21:20;22.50;57.30
22383;DHT22;11359;45.802;13.530;2022-09-13T07:23:46;22.50;57.30
22383;DHT22;11359;45.802;13.530;2022-09-13T07:26:12;22.50;57.30
22383;DHT22;11359;45.802;13.530;2022-09-13T07:28:42;22.60;57.30
22383;DHT22;11359;45.802;13.530;2022-09-13T07:31:23;22.60;57.30
22383;DHT22;11359;45.802;13.530;2022-09-13T07:33:54;22.60;57.40
22383;DHT22;11359;45.802;13.530;2022-09-13T07:36:20;22.70;57.60
22383;DHT22;11359;45.802;13.530;2022-09-13T07:38:46;22.70;57.60
22383;DHT22;11359;45.802;13.530;2022-09-13T07:41:15;22.70;57.60
22383;DHT22;11359;45.802;13.530;2022-09-13T07:43:41;22.80;57.70
22383;DHT22;11359;45.802;13.530;2022-09-13T07:46:09;22.80;57.70
22383;DHT22;11359;45.802;13.530;2022-09-13T07:48:37;22.80;57.70
22383;DHT22;11359;45.802;13.530;2022-09-13T07:51:10;22.90;57.70
22383;DHT22;11359;45.802;13.530;2022-09-13T07:53:37;22.90;57.60
22383;DHT22;11359;45.802;13.530;2022-09-13T07:56:08;22.90;57.60
22383;DHT22;11359;45.802;13.530;2022-09-13T07:58:36;23.00;57.70
22383;DHT22;11359;45.802;13.530;2022-09-13T08:01:13;23.00;57.70
22383;DHT22;11359;45.802;13.530;2022-09-13T08:03:40;23.10;57.80
22383;DHT22;11359;45.802;13.530;2022-09-13T08:06:06;23.10;57.70
22383;DHT22;11359;45.802;13.530;2022-09-13T08:08:33;23.10;57.70
22383;DHT22;11359;45.802;13.530;2022-09-13T08:11:00;23.20;57.60
22383;DHT22;11359;45.802;13.530;2022-09-13T08:13:27;23.20;57.60
22383;DHT22;11359;45.802;13.530;2022-09-13T08:15:53;23.20;57.60
22383;DHT22;11359;45.802;13.530;2022-09-13T08:18:19;23.20;57.60
22383;DHT22;11359;45.802;13.530;2022-09-13T08:20:46;23.30;57.70
22383;DHT22;11359;45.802;13.530;2022-09-13T08:23:12;23.40;57.80
22383;DHT22;11359;45.802;13.530;2022-09-13T08:25:38;23.40;57.80
22383;DHT22;11359;45.802;13.530;2022-09-13T08:28:08;23.50;57.80
22383;DHT22;11359;45.802;13.530;2022-09-13T08:30:36;23.50;57.90
22383;DHT22;11359;45.802;13.530;2022-09-13T08:33:05;23.50;57.70
22383;DHT22;11359;45.802;13.530;2022-09-13T08:35:32;23.60;58.30
22383;DHT22;11359;45.802;13.530;2022-09-13T08:37:58;23.60;57.50
22383;DHT22;11359;45.802;13.530;2022-09-13T08:40:26;23.60;57.50
22383;DHT22;11359;45.802;13.530;2022-09-13T08:45:57;23.60;57.40
22383;DHT22;11359;45.802;13.530;2022-09-13T08:48:27;23.70;57.50
22383;DHT22;11359;45.802;13.530;2022-09-13T08:51:00;23.70;57.50
22383;DHT22;11359;45.802;13.530;2022-09-13T08:53:29;23.70;57.60
22383;DHT22;11359;45.802;13.530;2022-09-13T09:03:55;23.80;57.60
22383;DHT22;11359;45.802;13.530;2022-09-13T09:06:23;23.80;57.60
22383;DHT22;11359;45.802;13.530;2022-09-13T09:08:59;23.80;57.60
22383;DHT22;11359;45.802;13.530;2022-09-13T09:11:51;23.80;57.60
22383;DHT22;11359;45.802;13.530;2022-09-13T09:14:26;23.80;57.60
22383;DHT22;11359;45.802;13.530;2022-09-13T09:17:02;23.90;57.60
22383;DHT22;11359;45.802;13.530;2022-09-13T09:20:09;23.90;57.60
22383;DHT22;11359;45.802;13.530;2022-09-13T09:22:41;23.90;57.50
22383;DHT22;11359;45.802;13.530;2022-09-13T09:25:09;24.00;57.40
22383;DHT22;11359;45.802;13.530;2022-09-13T09:27:35;24.00;57.40
22383;DHT22;11359;45.802;13.530;2022-09-13T09:30:01;24.00;57.40
22383;DHT22;11359;45.802;13.530;2022-09-13T09:32:57;24.00;57.30
22383;DHT22;11359;45.802;13.530;2022-09-13T09:35:29;24.10;57.30
22383;DHT22;11359;45.802;13.530;2022-09-13T09:40:49;24.10;57.30
22383;DHT22;11359;45.802;13.530;2022-09-13T09:43:24;24.10;57.30
22383;DHT22;11359;45.802;13.530;2022-09-13T09:45:53;24.10;57.30
22383;DHT22;11359;45.802;13.530;2022-09-13T09:48:25;24.20;57.40
22383;DHT22;11359;45.802;13.530;2022-09-13T09:50:56;24.20;57.40
22383;DHT22;11359;45.802;13.530;2022-09-13T09:53:34;24.20;57.40
22383;DHT22;11359;45.802;13.530;2022-09-13T09:58:42;24.30;57.30
22383;DHT22;11359;45.802;13.530;2022-09-13T10:01:34;24.30;57.30
22383;DHT22;11359;45.802;13.530;2022-09-13T10:04:18;24.30;57.30
22383;DHT22;11359;45.802;13.530;2022-09-13T10:06:46;24.30;57.30
22383;DHT22;11359;45.802;13.530;2022-09-13T10:09:21;24.40;57.40
22383;DHT22;11359;45.802;13.530;2022-09-13T10:11:54;24.40;57.40
22383;DHT22;11359;45.802;13.530;2022-09-13T10:14:42;24.50;57.40
22383;DHT22;11359;45.802;13.530;2022-09-13T10:22:32;24.50;58.10
22383;DHT22;11359;45.802;13.530;2022-09-13T10:25:14;24.60;57.50
22383;DHT22;11359;45.802;13.530;2022-09-13T10:27:41;24.60;57.60
22383;DHT22;11359;45.802;13.530;2022-09-13T10:30:32;24.60;57.60
22383;DHT22;11359;45.802;13.530;2022-09-13T10:32:58;24.60;57.70
22383;DHT22;11359;45.802;13.530;2022-09-13T10:35:24;24.70;57.80
22383;DHT22;11359;45.802;13.530;2022-09-13T10:37:50;24.70;57.80
22383;DHT22;11359;45.802;13.530;2022-09-13T10:40:31;24.70;57.80
22383;DHT22;11359;45.802;13.530;2022-09-13T10:43:05;24.80;57.90
22383;DHT22;11359;45.802;13.530;2022-09-13T10:45:37;24.80;57.80
22383;DHT22;11359;45.802;13.530;2022-09-13T10:48:20;24.90;57.80
22383;DHT22;11359;45.802;13.530;2022-09-13T10:51:03;24.90;57.80
22383;DHT22;11359;45.802;13.530;2022-09-13T10:55:58;25.00;58.00
22383;DHT22;11359;45.802;13.530;2022-09-13T10:58:24;25.00;57.90
22383;DHT22;11359;45.802;13.530;2022-09-13T11:09:35;25.30;58.00
22383;DHT22;11359;45.802;13.530;2022-09-13T11:17:22;25.30;57.80
22383;DHT22;11359;45.802;13.530;2022-09-13T11:28:19;25.50;57.80
22383;DHT22;11359;45.802;13.530;2022-09-13T11:36:37;25.60;57.80
22383;DHT22;11359;45.802;13.530;2022-09-13T11:45:14;25.70;57.60
22383;DHT22;11359;45.802;13.530;2022-09-13T11:50:45;25.80;57.30
22383;DHT22;11359;45.802;13.530;2022-09-13T11:56:14;25.80;57.10
22383;DHT22;11359;45.802;13.530;2022-09-13T11:58:47;25.80;57.10
22383;DHT22;11359;45.802;13.530;2022-09-13T12:01:24;25.90;56.90
22383;DHT22;11359;45.802;13.530;2022-09-13T12:06:41;25.90;56.50
22383;DHT22;11359;45.802;13.530;2022-09-13T12:09:13;25.90;56.50
22383;DHT22;11359;45.802;13.530;2022-09-13T12:11:45;26.00;56.40
22383;DHT22;11359;45.802;13.530;2022-09-13T12:14:17;26.00;56.20
22383;DHT22;11359;45.802;13.530;2022-09-13T12:16:50;26.00;56.10
22383;DHT22;11359;45.802;13.530;2022-09-13T12:19:39;26.00;56.00
22383;DHT22;11359;45.802;13.530;2022-09-13T12:22:07;26.10;56.10
22383;DHT22;11359;45.802;13.530;2022-09-13T12:24:44;26.10;55.90
22383;DHT22;11359;45.802;13.530;2022-09-13T12:30:02;26.20;56.10
22383;DHT22;11359;45.802;13.530;2022-09-13T12:32:30;26.20;56.30
22383;DHT22;11359;45.802;13.530;2022-09-13T12:41:13;26.30;55.90
22383;DHT22;11359;45.802;13.530;2022-09-13T13:02:44;26.60;56.10
22383;DHT22;11359;45.802;13.530;2022-09-13T13:05:32;26.60;56.10
22383;DHT22;11359;45.802;13.530;2022-09-13T13:08:05;26.70;56.30
22383;DHT22;11359;45.802;13.530;2022-09-13T13:10:36;26.60;56.30
22383;DHT22;11359;45.802;13.530;2022-09-13T13:13:15;26.70;56.30
22383;DHT22;11359;45.802;13.530;2022-09-13T13:18:29;26.70;56.50
22383;DHT22;11359;45.802;13.530;2022-09-13T13:36:31;26.80;56.80
22383;DHT22;11359;45.802;13.530;2022-09-13T13:39:11;26.90;56.90
22383;DHT22;11359;45.802;13.530;2022-09-13T13:41:53;26.80;56.90
22383;DHT22;11359;45.802;13.530;2022-09-13T13:46:49;26.80;57.10
22383;DHT22;11359;45.802;13.530;2022-09-13T13:57:40;26.70;57.70
22383;DHT22;11359;45.802;13.530;2022-09-13T14:00:26;26.70;57.90
22383;DHT22;11359;45.802;13.530;2022-09-13T14:03:08;26.60;58.00
22383;DHT22;11359;45.802;13.530;2022-09-13T14:05:45;26.60;58.20
22383;DHT22;11359;45.802;13.530;2022-09-13T14:13:53;26.50;58.60
22383;DHT22;11359;45.802;13.530;2022-09-13T14:19:31;26.50;58.90
22383;DHT22;11359;45.802;13.530;2022-09-13T14:24:51;26.50;59.10
22383;DHT22;11359;45.802;13.530;2022-09-13T14:27:29;26.50;59.10
22383;DHT22;11359;45.802;13.530;2022-09-13T14:30:16;26.40;59.10
22383;DHT22;11359;45.802;13.530;2022-09-13T14:32:44;26.40;59.10
22383;DHT22;11359;45.802;13.530;2022-09-13T14:38:26;26.40;59.30
22383;DHT22;11359;45.802;13.530;2022-09-13T14:41:15;26.40;59.30
22383;DHT22;11359;45.802;13.530;2022-09-13T14:43:42;26.40;59.40
22383;DHT22;11359;45.802;13.530;2022-09-13T14:46:33;26.40;59.50
22383;DHT22;11359;45.802;13.530;2022-09-13T14:49:16;26.30;59.50
22383;DHT22;11359;45.802;13.530;2022-09-13T14:51:48;26.30;59.50
22383;DHT22;11359;45.802;13.530;2022-09-13T14:54:37;26.30;59.60
22383;DHT22;11359;45.802;13.530;2022-09-13T14:57:08;26.30;59.70
22383;DHT22;11359;45.802;13.530;2022-09-13T14:59:47;26.30;59.70
22383;DHT22;11359;45.802;13.530;2022-09-13T15:04:47;26.30;60.00
22383;DHT22;11359;45.802;13.530;2022-09-13T15:09:49;26.20;59.90
22383;DHT22;11359;45.802;13.530;2022-09-13T15:12:25;26.20;60.00
22383;DHT22;11359;45.802;13.530;2022-09-13T15:23:27;26.20;60.30
22383;DHT22;11359;45.802;13.530;2022-09-13T15:25:56;26.20;60.30
22383;DHT22;11359;45.802;13.530;2022-09-13T15:28:26;26.20;60.30
22383;DHT22;11359;45.802;13.530;2022-09-13T15:30:53;26.20;60.40
22383;DHT22;11359;45.802;13.530;2022-09-13T15:33:28;26.20;60.40
22383;DHT22;11359;45.802;13.530;2022-09-13T15:39:03;26.10;60.40
22383;DHT22;11359;45.802;13.530;2022-09-13T15:41:56;26.10;60.40
22383;DHT22;11359;45.802;13.530;2022-09-13T15:44:23;26.20;60.50
22383;DHT22;11359;45.802;13.530;2022-09-13T15:46:52;26.10;60.40
22383;DHT22;11359;45.802;13.530;2022-09-13T15:49:23;26.10;60.50
22383;DHT22;11359;45.802;13.530;2022-09-13T15:51:56;26.10;60.50
22383;DHT22;11359;45.802;13.530;2022-09-13T15:54:35;26.10;60.60
22383;DHT22;11359;45.802;13.530;2022-09-13T15:57:01;26.10;60.70
22383;DHT22;11359;45.802;13.530;2022-09-13T15:59:30;26.20;60.80
22383;DHT22;11359;45.802;13.530;2022-09-13T16:01:56;26.20;60.80
22383;DHT22;11359;45.802;13.530;2022-09-13T16:04:21;26.20;60.90
22383;DHT22;11359;45.802;13.530;2022-09-13T16:06:47;26.20;60.90
22383;DHT22;11359;45.802;13.530;2022-09-13T16:09:17;26.20;60.90
22383;DHT22;11359;45.802;13.530;2022-09-13T16:11:44;26.20;60.90
22383;DHT22;11359;45.802;13.530;2022-09-13T16:14:10;26.30;60.90
22383;DHT22;11359;45.802;13.530;2022-09-13T16:16:36;26.30;60.80
22383;DHT22;11359;45.802;13.530;2022-09-13T16:19:01;26.30;60.60
22383;DHT22;11359;45.802;13.530;2022-09-13T16:21:27;26.30;60.60
22383;DHT22;11359;45.802;13.530;2022-09-13T16:23:54;26.30;60.50
22383;DHT22;11359;45.802;13.530;2022-09-13T16:26:19;26.30;60.50
22383;DHT22;11359;45.802;13.530;2022-09-13T16:28:45;26.30;60.30
22383;DHT22;11359;45.802;13.530;2022-09-13T16:31:11;26.30;60.30
22383;DHT22;11359;45.802;13.530;2022-09-13T16:33:39;26.30;60.20
22383;DHT22;11359;45.802;13.530;2022-09-13T16:36:05;26.30;60.20
22383;DHT22;11359;45.802;13.530;2022-09-13T16:38:30;26.30;60.20
22383;DHT22;11359;45.802;13.530;2022-09-13T16:40:56;26.30;61.00
22383;DHT22;11359;45.802;13.530;2022-09-13T16:43:25;26.30;60.30
22383;DHT22;11359;45.802;13.530;2022-09-13T16:45:50;26.20;60.30
22383;DHT22;11359;45.802;13.530;2022-09-13T16:48:16;26.20;60.30
22383;DHT22;11359;45.802;13.530;2022-09-13T16:50:42;26.20;60.30
22383;DHT22;11359;45.802;13.530;2022-09-13T16:53:07;26.20;60.40
22383;DHT22;11359;45.802;13.530;2022-09-13T16:55:33;26.20;60.40
22383;DHT22;11359;45.802;13.530;2022-09-13T16:57:59;26.20;60.50
22383;DHT22;11359;45.802;13.530;2022-09-13T17:00:25;26.10;60.60
22383;DHT22;11359;45.802;13.530;2022-09-13T17:02:54;26.10;60.70
22383;DHT22;11359;45.802;13.530;2022-09-13T17:05:21;26.10;60.80
22383;DHT22;11359;45.802;13.530;2022-09-13T17:07:47;26.10;60.90
22383;DHT22;11359;45.802;13.530;2022-09-13T17:10:12;26.00;60.80
22383;DHT22;11359;45.802;13.530;2022-09-13T17:12:38;26.00;61.00
22383;DHT22;11359;45.802;13.530;2022-09-13T17:15:06;26.00;61.00
22383;DHT22;11359;45.802;13.530;2022-09-13T17:17:32;25.90;61.80
22383;DHT22;11359;45.802;13.530;2022-09-13T17:20:05;25.90;61.10
22383;DHT22;11359;45.802;13.530;2022-09-13T17:22:35;25.90;61.20
22383;DHT22;11359;45.802;13.530;2022-09-13T17:25:02;25.90;61.20
22383;DHT22;11359;45.802;13.530;2022-09-13T17:27:27;25.90;61.30
22383;DHT22;11359;45.802;13.530;2022-09-13T17:29:53;25.80;61.30
22383;DHT22;11359;45.802;13.530;2022-09-13T17:32:19;25.80;61.40
22383;DHT22;11359;45.802;13.530;2022-09-13T17:34:45;25.70;61.40
22383;DHT22;11359;45.802;13.530;2022-09-13T17:37:10;25.70;61.50
22383;DHT22;11359;45.802;13.530;2022-09-13T17:39:36;25.70;61.50
22383;DHT22;11359;45.802;13.530;2022-09-13T17:42:02;25.70;61.60
22383;DHT22;11359;45.802;13.530;2022-09-13T17:44:28;25.70;61.70
22383;DHT22;11359;45.802;13.530;2022-09-13T17:46:53;25.70;61.80
22383;DHT22;11359;45.802;13.530;2022-09-13T17:49:19;25.60;61.80
22383;DHT22;11359;45.802;13.530;2022-09-13T17:51:45;25.60;61.80
22383;DHT22;11359;45.802;13.530;2022-09-13T17:54:11;25.60;61.90
22383;DHT22;11359;45.802;13.530;2022-09-13T17:56:41;25.50;61.90
22383;DHT22;11359;45.802;13.530;2022-09-13T17:59:13;25.50;62.00
22383;DHT22;11359;45.802;13.530;2022-09-13T18:01:42;25.50;62.10
22383;DHT22;11359;45.802;13.530;2022-09-13T18:04:08;25.50;62.20
22383;DHT22;11359;45.802;13.530;2022-09-13T18:06:35;25.50;62.20
22383;DHT22;11359;45.802;13.530;2022-09-13T18:09:02;25.40;62.20
22383;DHT22;11359;45.802;13.530;2022-09-13T18:11:27;25.40;62.30
22383;DHT22;11359;45.802;13.530;2022-09-13T18:13:53;25.40;62.30
22383;DHT22;11359;45.802;13.530;2022-09-13T18:16:24;25.40;62.40
22383;DHT22;11359;45.802;13.530;2022-09-13T18:18:51;25.30;62.30
22383;DHT22;11359;45.802;13.530;2022-09-13T18:21:19;25.30;62.50
22383;DHT22;11359;45.802;13.530;2022-09-13T18:23:50;25.30;62.50
22383;DHT22;11359;45.802;13.530;2022-09-13T18:26:19;25.30;62.60
22383;DHT22;11359;45.802;13.530;2022-09-13T18:28:45;25.30;62.70
22383;DHT22;11359;45.802;13.530;2022-09-13T18:31:13;25.30;62.70
22383;DHT22;11359;45.802;13.530;2022-09-13T18:33:40;25.20;62.60
22383;DHT22;11359;45.802;13.530;2022-09-13T18:36:13;25.20;62.80
22383;DHT22;11359;45.802;13.530;2022-09-13T18:38:44;25.20;62.80
22383;DHT22;11359;45.802;13.530;2022-09-13T18:41:45;25.20;62.90
22383;DHT22;11359;45.802;13.530;2022-09-13T18:44:08;25.20;62.90
22383;DHT22;11359;45.802;13.530;2022-09-13T18:46:34;25.10;63.00
22383;DHT22;11359;45.802;13.530;2022-09-13T18:49:01;25.10;63.10
22383;DHT22;11359;45.802;13.530;2022-09-13T18:51:41;25.10;63.10
22383;DHT22;11359;45.802;13.530;2022-09-13T18:54:11;25.10;63.10
22383;DHT22;11359;45.802;13.530;2022-09-13T18:56:37;25.10;63.10
22383;DHT22;11359;45.802;13.530;2022-09-13T18:59:04;25.10;63.20
22383;DHT22;11359;45.802;13.530;2022-09-13T19:01:33;25.00;63.20